createdAt,value
2018-04-12T16:02:22.785Z,51.90
2018-04-12T16:03:25.737Z,51.80
2018-04-12T16:06:11.477Z,49.90
2018-04-12T16:08:39.091Z,51.00
2018-04-12T16:11:07.297Z,51.70
2018-04-12T16:13:34.781Z,51.70
2018-04-12T16:16:02.226Z,52.20
2018-04-12T16:18:29.701Z,52.50
2018-04-12T16:20:57.141Z,52.50
2018-04-12T16:23:24.609Z,52.80
2018-04-12T16:25:52.053Z,53.10
2018-04-12T16:28:19.522Z,53.20
2018-04-12T16:30:46.965Z,53.00
2018-04-12T16:33:14.483Z,53.00
2018-04-12T16:35:42.687Z,53.10
2018-04-12T16:38:10.150Z,53.00
2018-04-12T16:40:37.929Z,53.00
2018-04-12T16:43:05.373Z,52.80
2018-04-12T16:45:32.860Z,53.00
2018-04-12T16:48:00.293Z,53.00
2018-04-12T16:50:27.747Z,53.10
2018-04-12T16:52:55.208Z,53.60
2018-04-12T16:55:22.686Z,53.10
2018-04-12T16:57:50.131Z,53.20
2018-04-12T17:00:17.606Z,53.30
2018-04-12T17:02:45.046Z,53.40
2018-04-12T17:05:12.531Z,53.30
2018-04-12T17:07:39.982Z,53.40
2018-04-12T17:10:07.512Z,53.40
2018-04-12T17:12:34.937Z,53.40
2018-04-12T17:15:03.183Z,53.60
2018-04-12T17:17:30.617Z,53.60
2018-04-12T17:19:58.688Z,53.60
2018-04-12T17:22:26.154Z,53.60
2018-04-12T17:24:53.602Z,53.80
2018-04-12T17:27:21.045Z,53.80
2018-04-12T17:29:48.486Z,54.60
2018-04-12T17:32:15.999Z,54.00
2018-04-12T17:34:43.549Z,54.00
2018-04-12T17:37:10.994Z,54.10
2018-04-12T17:39:38.471Z,54.20
2018-04-12T17:42:06.029Z,54.00
2018-04-12T17:44:33.583Z,54.10
2018-04-12T17:47:01.026Z,54.20
2018-04-12T17:49:29.334Z,54.20
2018-04-12T17:51:56.785Z,54.20
2018-04-12T17:54:24.234Z,54.30
2018-04-12T17:56:51.685Z,54.30
2018-04-12T17:59:19.128Z,54.50
2018-04-12T18:01:46.593Z,54.50
2018-04-12T18:04:14.035Z,54.60
2018-04-12T18:06:41.485Z,54.70
2018-04-12T18:09:08.977Z,54.70
2018-04-12T18:11:36.558Z,54.70
2018-04-12T18:14:04.801Z,54.90
2018-04-12T18:16:32.271Z,55.00
2018-04-12T18:18:59.738Z,55.10
2018-04-12T18:21:38.844Z,55.00
2018-04-12T18:24:07.041Z,55.30
2018-04-12T18:26:34.575Z,55.20
2018-04-12T18:29:02.435Z,55.40
2018-04-12T18:31:29.923Z,55.40
2018-04-12T18:33:57.370Z,55.40
2018-04-12T18:36:24.816Z,55.70
2018-04-12T18:38:52.257Z,55.70
2018-04-12T18:41:19.753Z,55.90
2018-04-12T18:43:47.197Z,55.90
2018-04-12T18:46:14.809Z,56.10
2018-04-12T18:48:42.219Z,56.40
2018-04-12T18:51:09.669Z,56.40
2018-04-12T18:53:37.105Z,56.50
2018-04-12T18:56:04.565Z,56.60
2018-04-12T18:58:32.038Z,56.60
2018-04-12T19:01:01.319Z,56.70
2018-04-12T19:03:29.513Z,56.70
2018-04-12T19:05:56.981Z,56.70
2018-04-12T19:08:24.686Z,56.80
2018-04-12T19:10:52.130Z,56.90
2018-04-12T19:13:19.606Z,56.90
2018-04-12T19:15:47.042Z,57.80
2018-04-12T19:18:14.664Z,57.20
2018-04-12T19:20:42.135Z,57.40
2018-04-12T19:23:09.569Z,57.60
2018-04-12T19:25:37.049Z,57.70
2018-04-12T19:28:04.527Z,57.60
2018-04-12T19:30:31.982Z,57.70
2018-04-12T19:32:59.537Z,57.80
2018-04-12T19:35:26.990Z,57.80
2018-04-12T19:37:54.461Z,57.80
2018-04-12T19:40:22.052Z,57.90
2018-04-12T19:42:49.580Z,57.90
2018-04-12T19:45:17.021Z,58.00
2018-04-12T19:47:44.470Z,58.20
2018-04-12T19:50:14.042Z,58.20
2018-04-12T19:52:41.469Z,58.30
2018-04-12T19:55:10.430Z,58.80
2018-04-12T19:57:37.905Z,58.70
2018-04-12T20:00:05.366Z,58.80
2018-04-12T20:02:32.922Z,58.90
2018-04-12T20:05:00.383Z,59.00
2018-04-12T20:07:27.819Z,59.20
2018-04-12T20:09:55.271Z,59.30
2018-04-12T20:12:22.723Z,59.20
2018-04-12T20:14:50.158Z,59.40
2018-04-12T20:17:17.605Z,59.40
2018-04-12T20:19:45.855Z,59.20
2018-04-12T20:22:13.405Z,59.70
2018-04-12T20:24:40.867Z,59.80
2018-04-12T20:27:08.322Z,60.00
2018-04-12T20:29:35.762Z,60.30
2018-04-12T20:32:03.230Z,60.80
2018-04-12T20:34:30.698Z,61.40
2018-04-12T20:36:58.150Z,61.80
2018-04-12T20:39:25.589Z,62.00
2018-04-12T20:41:53.070Z,62.30
2018-04-12T20:44:20.513Z,62.30
2018-04-12T20:46:48.052Z,62.20
2018-04-12T20:49:15.443Z,62.20
2018-04-12T20:51:43.002Z,62.10
2018-04-12T20:54:10.441Z,62.30
2018-04-12T20:56:37.910Z,62.50
2018-04-12T20:59:05.361Z,62.90
2018-04-12T21:01:32.803Z,63.00
2018-04-12T21:04:00.246Z,63.20
2018-04-12T21:06:27.745Z,63.40
2018-04-12T21:08:55.194Z,63.50
2018-04-12T21:11:22.650Z,63.50
2018-04-12T21:13:50.099Z,63.40
2018-04-12T21:16:17.578Z,63.50
2018-04-12T21:18:45.018Z,63.70
2018-04-12T21:21:12.501Z,63.30
2018-04-12T21:23:39.946Z,63.30
2018-04-12T21:26:07.389Z,63.40
2018-04-12T21:28:34.941Z,63.20
2018-04-12T21:31:02.394Z,63.10
2018-04-12T21:33:29.890Z,63.00
2018-04-12T21:35:57.444Z,62.90
2018-04-12T21:38:25.014Z,63.10
2018-04-12T21:40:52.569Z,63.50
2018-04-12T21:43:20.022Z,63.80
2018-04-12T21:45:47.465Z,64.20
2018-04-12T21:48:14.947Z,65.00
2018-04-12T21:50:44.998Z,65.40
2018-04-12T21:53:12.433Z,65.60
2018-04-12T21:55:39.885Z,65.10
2018-04-12T21:58:08.233Z,65.80
2018-04-12T22:00:35.679Z,65.70
2018-04-12T22:03:03.555Z,65.60
2018-04-12T22:05:30.985Z,65.70
2018-04-12T22:07:59.233Z,66.80
2018-04-12T22:10:27.139Z,66.80
2018-04-12T22:12:54.638Z,67.30
2018-04-12T22:15:22.079Z,67.20
2018-04-12T22:17:49.524Z,67.50
2018-04-12T22:20:17.010Z,63.80
2018-04-12T22:22:44.456Z,58.60
2018-04-12T22:25:11.890Z,58.40
2018-04-12T22:27:39.330Z,58.70
2018-04-12T22:30:07.534Z,60.20
2018-04-12T22:32:34.988Z,60.20
2018-04-12T22:35:02.566Z,60.00
2018-04-12T22:37:30.043Z,59.20
2018-04-12T22:39:57.601Z,57.20
2018-04-12T22:42:25.145Z,56.20
2018-04-12T22:44:52.583Z,56.50
2018-04-12T22:47:20.038Z,57.70
2018-04-12T22:49:47.479Z,58.90
2018-04-12T22:52:15.689Z,61.40
2018-04-12T22:54:43.125Z,61.30
2018-04-12T22:57:10.571Z,62.10
2018-04-12T22:59:38.000Z,62.10
2018-04-12T23:02:05.537Z,62.10
2018-04-12T23:04:32.990Z,62.40
2018-04-12T23:07:00.455Z,63.00
2018-04-12T23:09:27.885Z,63.10
2018-04-12T23:11:55.365Z,64.10
2018-04-12T23:14:22.797Z,64.10
2018-04-12T23:16:50.237Z,64.50
2018-04-12T23:19:17.734Z,65.10
2018-04-12T23:21:45.706Z,65.40
2018-04-12T23:24:13.142Z,66.80
2018-04-12T23:26:43.342Z,68.00
2018-04-12T23:29:10.773Z,68.10
2018-04-12T23:31:38.218Z,68.30
2018-04-12T23:34:05.757Z,68.40
2018-04-12T23:36:33.199Z,68.30
2018-04-12T23:39:01.173Z,68.30
2018-04-12T23:41:28.609Z,68.30
2018-04-12T23:43:56.716Z,68.60
2018-04-12T23:46:24.159Z,68.80
2018-04-12T23:48:51.601Z,69.20
2018-04-12T23:51:19.035Z,69.40
2018-04-12T23:53:47.883Z,69.30
2018-04-12T23:56:15.338Z,69.10
2018-04-12T23:58:42.788Z,69.50
